createdAt,value
2022-11-06T00:00:39.151Z,13.00
2022-11-06T00:03:09.675Z,12.80
2022-11-06T00:06:00.735Z,11.50
2022-11-06T00:08:32.171Z,12.60
2022-11-06T00:11:00.635Z,12.70
2022-11-06T00:13:30.143Z,11.90
2022-11-06T00:15:58.407Z,11.30
2022-11-06T00:18:28.969Z,11.80
2022-11-06T00:20:57.239Z,11.50
2022-11-06T00:23:25.767Z,12.20
2022-11-06T00:25:56.658Z,11.50
2022-11-06T00:28:25.020Z,12.00
2022-11-06T00:31:01.313Z,11.70
2022-11-06T00:33:31.007Z,11.90
2022-11-06T00:35:59.717Z,12.30
2022-11-06T00:38:27.971Z,11.40
2022-11-06T00:40:56.227Z,11.20
2022-11-06T00:43:24.536Z,11.50
2022-11-06T00:45:52.802Z,10.90
2022-11-06T00:48:21.020Z,11.00
2022-11-06T00:50:50.663Z,11.80
2022-11-06T00:53:18.888Z,11.40
2022-11-06T00:55:47.131Z,10.90
2022-11-06T00:58:15.740Z,10.70
2022-11-06T01:00:44.115Z,11.20
2022-11-06T01:03:12.373Z,11.50
2022-11-06T01:05:41.861Z,12.10
2022-11-06T01:08:11.757Z,12.10
2022-11-06T01:10:40.267Z,12.20
2022-11-06T01:13:08.478Z,12.10
2022-11-06T01:15:38.181Z,12.00
2022-11-06T01:18:06.586Z,12.20
2022-11-06T01:20:34.820Z,12.60
2022-11-06T01:23:03.043Z,13.30
2022-11-06T01:25:32.683Z,12.60
2022-11-06T01:28:00.942Z,12.10
2022-11-06T01:30:29.250Z,12.70
2022-11-06T01:32:57.526Z,12.80
2022-11-06T01:35:25.788Z,12.80
2022-11-06T01:37:54.018Z,11.30
2022-11-06T01:40:22.259Z,11.30
2022-11-06T01:42:51.944Z,10.70
2022-11-06T01:45:38.792Z,11.00
2022-11-06T01:48:07.369Z,10.90
2022-11-06T01:50:35.757Z,11.00
2022-11-06T01:53:04.521Z,11.70
2022-11-06T01:55:39.490Z,11.10
2022-11-06T01:58:13.167Z,10.50
2022-11-06T02:00:42.108Z,10.90
2022-11-06T02:03:12.681Z,11.00
2022-11-06T02:05:41.723Z,11.80
2022-11-06T02:08:14.441Z,12.80
2022-11-06T02:10:43.175Z,11.60
2022-11-06T02:13:37.871Z,11.70
2022-11-06T02:16:16.521Z,12.30
2022-11-06T02:19:10.184Z,11.20
2022-11-06T02:22:12.399Z,11.20
2022-11-06T02:25:08.870Z,11.20
2022-11-06T02:27:38.885Z,10.90
2022-11-06T02:30:10.798Z,11.30
2022-11-06T02:32:45.337Z,11.00
2022-11-06T02:35:22.323Z,10.80
2022-11-06T02:37:57.171Z,11.00
2022-11-06T02:40:33.215Z,10.80
2022-11-06T02:43:07.350Z,10.30
2022-11-06T02:45:48.641Z,11.00
2022-11-06T02:48:21.235Z,11.10
2022-11-06T02:50:52.073Z,11.80
2022-11-06T02:53:25.110Z,10.40
2022-11-06T02:55:58.853Z,10.50
2022-11-06T02:58:38.987Z,12.20
2022-11-06T03:01:15.390Z,11.40
2022-11-06T03:03:51.922Z,11.70
2022-11-06T03:06:28.220Z,11.00
2022-11-06T03:09:03.704Z,10.70
2022-11-06T03:11:35.899Z,10.80
2022-11-06T03:14:11.995Z,10.80
2022-11-06T03:16:50.490Z,10.90
2022-11-06T03:19:30.555Z,11.00
2022-11-06T03:22:05.379Z,11.80
2022-11-06T03:24:44.097Z,11.40
2022-11-06T03:27:18.035Z,11.30
2022-11-06T03:29:51.028Z,11.30
2022-11-06T03:32:32.339Z,11.70
2022-11-06T03:35:07.750Z,11.50
2022-11-06T03:37:43.126Z,11.70
2022-11-06T03:40:17.025Z,10.20
2022-11-06T03:53:09.096Z,10.00
2022-11-06T03:55:45.998Z,10.10
2022-11-06T03:58:18.506Z,10.90
2022-11-06T04:00:49.176Z,10.20
2022-11-06T04:03:24.628Z,11.20
2022-11-06T04:06:02.231Z,10.60
2022-11-06T04:08:48.993Z,11.30
2022-11-06T04:11:39.173Z,10.70
2022-11-06T04:14:09.434Z,10.70
2022-11-06T04:16:44.113Z,11.30
2022-11-06T04:19:17.778Z,10.60
2022-11-06T04:22:18.812Z,10.60
2022-11-06T04:25:20.939Z,11.20
2022-11-06T04:28:20.488Z,11.50
2022-11-06T04:31:02.797Z,10.10
2022-11-06T04:33:42.155Z,10.40
2022-11-06T04:36:21.274Z,10.70
2022-11-06T04:39:02.072Z,12.10
2022-11-06T04:41:37.801Z,10.80
2022-11-06T04:44:11.221Z,10.70
2022-11-06T04:46:46.487Z,10.40
2022-11-06T04:49:17.496Z,9.90
2022-11-06T04:51:48.457Z,10.20
2022-11-06T04:54:17.641Z,10.20
2022-11-06T04:56:46.697Z,11.00
2022-11-06T05:01:47.119Z,9.60
2022-11-06T05:04:16.849Z,9.60
2022-11-06T05:06:45.130Z,10.20
2022-11-06T05:09:13.559Z,10.00
2022-11-06T05:11:41.837Z,10.20
2022-11-06T05:14:10.062Z,9.60
2022-11-06T05:16:38.501Z,10.90
2022-11-06T05:19:06.799Z,11.20
2022-11-06T05:21:54.090Z,10.20
2022-11-06T05:24:22.353Z,10.20
2022-11-06T05:26:54.584Z,10.20
2022-11-06T05:29:26.220Z,10.40
2022-11-06T05:31:54.547Z,10.40
2022-11-06T05:34:23.007Z,10.20
2022-11-06T05:36:52.689Z,10.40
2022-11-06T05:39:20.926Z,10.30
2022-11-06T05:41:49.191Z,10.90
2022-11-06T05:44:17.583Z,10.30
2022-11-06T05:46:50.061Z,11.10
2022-11-06T05:49:19.662Z,10.70
2022-11-06T05:51:48.136Z,10.60
2022-11-06T05:54:17.870Z,10.80
2022-11-06T05:56:46.115Z,10.70
2022-11-06T05:59:14.357Z,10.60
2022-11-06T06:01:42.682Z,10.80
2022-11-06T06:04:11.038Z,10.80
2022-11-06T06:06:40.170Z,11.00
2022-11-06T06:09:08.603Z,10.50
2022-11-06T06:11:38.395Z,10.80
2022-11-06T06:14:06.609Z,10.50
2022-11-06T06:16:35.654Z,10.80
2022-11-06T06:19:03.874Z,10.60
2022-11-06T06:21:32.159Z,10.80
2022-11-06T06:24:00.428Z,10.70
2022-11-06T06:26:28.702Z,10.50
2022-11-06T06:28:58.459Z,11.00
2022-11-06T06:31:26.740Z,11.30
2022-11-06T06:33:55.067Z,11.90
2022-11-06T06:36:23.337Z,10.80
2022-11-06T06:38:51.610Z,11.00
2022-11-06T06:41:19.867Z,10.60
2022-11-06T06:43:50.222Z,11.30
2022-11-06T06:46:19.834Z,11.70
2022-11-06T06:48:48.492Z,11.40
2022-11-06T06:51:22.629Z,11.10
2022-11-06T06:53:52.375Z,10.70
2022-11-06T06:56:20.695Z,10.70
2022-11-06T06:58:49.047Z,10.30
2022-11-06T07:01:17.483Z,11.00
2022-11-06T07:03:47.119Z,10.90
2022-11-06T07:06:15.673Z,10.70
2022-11-06T07:08:43.868Z,10.20
2022-11-06T07:11:13.059Z,10.10
2022-11-06T07:13:41.346Z,10.40
2022-11-06T07:16:12.618Z,10.60
2022-11-06T07:18:42.061Z,10.70
2022-11-06T07:21:14.132Z,10.80
2022-11-06T07:23:42.380Z,10.90
2022-11-06T07:26:10.677Z,10.40
2022-11-06T07:28:39.086Z,11.10
2022-11-06T07:31:09.553Z,10.90
2022-11-06T07:33:37.819Z,10.90
2022-11-06T07:36:08.567Z,10.80
2022-11-06T07:38:40.116Z,10.30
2022-11-06T07:41:11.782Z,11.00
2022-11-06T07:43:40.713Z,10.40
2022-11-06T07:46:11.484Z,10.80
2022-11-06T07:48:40.575Z,10.90
2022-11-06T07:51:11.310Z,11.20
2022-11-06T07:53:41.273Z,10.80
2022-11-06T07:56:10.224Z,10.60
2022-11-06T07:58:39.043Z,10.80
2022-11-06T08:01:07.876Z,11.10
2022-11-06T08:03:36.132Z,10.70
2022-11-06T08:06:06.115Z,10.80
2022-11-06T08:08:34.493Z,11.40
2022-11-06T08:11:09.135Z,10.70
2022-11-06T08:13:38.202Z,10.70
2022-11-06T08:16:08.695Z,10.90
2022-11-06T08:18:37.755Z,11.80
2022-11-06T08:21:07.688Z,11.70
2022-11-06T08:23:36.691Z,11.00
2022-11-06T08:26:08.322Z,11.50
2022-11-06T08:28:36.811Z,11.30
2022-11-06T08:31:06.168Z,11.10
2022-11-06T08:33:35.409Z,11.60
2022-11-06T08:36:04.351Z,11.60
2022-11-06T08:38:32.778Z,12.10
2022-11-06T08:41:08.343Z,12.20
2022-11-06T08:43:37.748Z,11.90
2022-11-06T08:46:08.087Z,11.90
2022-11-06T08:48:36.842Z,11.70
2022-11-06T08:51:06.722Z,11.30
2022-11-06T08:53:35.838Z,11.60
2022-11-06T08:56:05.146Z,11.70
2022-11-06T08:58:34.832Z,11.40
2022-11-06T09:01:03.197Z,11.80
2022-11-06T09:03:31.487Z,11.50
2022-11-06T09:05:59.793Z,11.90
2022-11-06T09:08:28.041Z,11.40
2022-11-06T09:10:58.820Z,11.30
2022-11-06T09:13:27.435Z,11.90
2022-11-06T09:15:57.064Z,11.70
2022-11-06T09:18:25.310Z,12.00
2022-11-06T09:20:56.555Z,12.10
2022-11-06T09:23:25.378Z,11.70
2022-11-06T09:25:53.727Z,11.80
2022-11-06T09:28:22.003Z,11.80
2022-11-06T09:30:50.283Z,11.80
2022-11-06T09:33:20.527Z,11.90
2022-11-06T09:35:49.139Z,11.80
2022-11-06T09:38:17.346Z,11.80
2022-11-06T09:40:52.601Z,11.90
2022-11-06T09:44:05.051Z,11.80
2022-11-06T09:46:38.795Z,12.20
2022-11-06T09:49:19.477Z,12.50
2022-11-06T09:51:54.243Z,12.80
2022-11-06T09:54:29.540Z,12.70
2022-11-06T09:57:05.920Z,12.30
2022-11-06T09:59:41.369Z,12.50
2022-11-06T10:02:28.653Z,12.30
2022-11-06T10:05:06.653Z,12.30
2022-11-06T10:07:37.740Z,12.30
2022-11-06T10:10:09.217Z,12.20
2022-11-06T10:12:54.274Z,12.20
2022-11-06T10:15:27.345Z,12.50
2022-11-06T10:18:06.341Z,12.40
2022-11-06T10:20:47.698Z,12.40
2022-11-06T10:23:27.169Z,12.50
2022-11-06T10:26:08.681Z,12.20
2022-11-06T10:29:08.904Z,12.50
2022-11-06T10:31:48.473Z,12.20
2022-11-06T10:34:22.742Z,12.40
2022-11-06T10:36:56.452Z,12.10
2022-11-06T10:39:31.627Z,12.30
2022-11-06T10:42:06.356Z,12.60
2022-11-06T10:44:40.190Z,12.70
2022-11-06T10:47:16.765Z,12.60
2022-11-06T10:49:49.361Z,12.40
2022-11-06T10:52:49.054Z,12.50
2022-11-06T10:56:08.149Z,12.50
2022-11-06T10:58:39.125Z,12.30
2022-11-06T11:01:10.181Z,12.50
2022-11-06T11:03:43.544Z,13.00
2022-11-06T11:06:11.906Z,12.60
2022-11-06T11:08:43.969Z,13.20
2022-11-06T11:11:25.024Z,13.20
2022-11-06T11:14:16.349Z,12.90
2022-11-06T11:16:46.881Z,12.60
2022-11-06T11:21:59.476Z,12.80
2022-11-06T11:24:29.826Z,12.60
2022-11-06T11:27:02.110Z,12.60
2022-11-06T11:29:34.050Z,12.60
2022-11-06T11:32:07.097Z,12.70
2022-11-06T11:34:50.189Z,13.00
2022-11-06T11:37:27.845Z,13.30
2022-11-06T11:40:17.831Z,12.90
2022-11-06T11:42:47.527Z,12.80
2022-11-06T11:45:21.562Z,12.80
2022-11-06T11:47:52.302Z,13.00
2022-11-06T11:50:29.400Z,13.20
2022-11-06T11:53:08.831Z,12.90
2022-11-06T11:55:44.502Z,12.90
2022-11-06T11:58:27.804Z,12.80
2022-11-06T12:00:59.594Z,12.80
2022-11-06T12:03:33.372Z,12.50
2022-11-06T12:06:11.848Z,12.90
2022-11-06T12:08:46.510Z,13.40
2022-11-06T12:11:21.016Z,13.30
2022-11-06T12:14:37.563Z,13.20
2022-11-06T12:17:16.106Z,13.00
2022-11-06T12:19:52.386Z,13.00
2022-11-06T12:22:28.810Z,13.30
2022-11-06T12:25:03.719Z,13.00
2022-11-06T12:27:38.737Z,13.10
2022-11-06T12:30:13.837Z,13.60
2022-11-06T12:33:02.235Z,13.00
2022-11-06T12:35:32.637Z,13.20
2022-11-06T12:38:22.126Z,12.90
2022-11-06T12:40:56.718Z,12.80
2022-11-06T12:43:35.337Z,12.90
2022-11-06T12:46:30.731Z,12.80
2022-11-06T12:49:53.344Z,12.90
2022-11-06T12:52:38.847Z,13.60
2022-11-06T12:55:23.728Z,12.80
2022-11-06T12:58:11.806Z,12.80
2022-11-06T13:00:53.824Z,12.80
2022-11-06T13:04:09.076Z,12.60
2022-11-06T13:07:20.786Z,12.70
2022-11-06T13:10:03.715Z,12.80
2022-11-06T13:12:42.479Z,13.00
2022-11-06T13:15:25.762Z,13.30
2022-11-06T13:17:59.604Z,13.10
2022-11-06T13:20:38.375Z,13.10
2022-11-06T13:23:17.509Z,12.90
2022-11-06T13:25:55.255Z,13.10
2022-11-06T13:28:31.298Z,13.00
2022-11-06T13:31:03.076Z,13.10
2022-11-06T13:33:38.179Z,13.10
2022-11-06T13:36:09.149Z,12.80
2022-11-06T13:38:41.982Z,12.80
2022-11-06T13:41:19.963Z,12.90
2022-11-06T13:43:53.956Z,13.30
2022-11-06T13:46:31.230Z,13.40
2022-11-06T13:49:11.037Z,13.00
2022-11-06T13:51:51.298Z,13.10
2022-11-06T13:54:29.539Z,13.30
2022-11-06T13:57:54.099Z,13.90
2022-11-06T14:00:24.062Z,13.30
2022-11-06T14:03:42.550Z,13.10
2022-11-06T14:06:20.260Z,13.20
2022-11-06T14:08:54.175Z,13.10
2022-11-06T14:11:29.449Z,13.00
2022-11-06T14:14:02.050Z,13.20
2022-11-06T14:16:33.735Z,13.50
2022-11-06T14:19:12.861Z,13.10
2022-11-06T14:21:51.914Z,13.10
2022-11-06T14:24:42.770Z,12.90
2022-11-06T14:27:33.031Z,12.90
2022-11-06T14:30:05.174Z,13.20
2022-11-06T14:32:48.388Z,13.10
2022-11-06T14:35:50.878Z,13.30
2022-11-06T14:38:36.714Z,13.30
2022-11-06T14:42:00.399Z,13.30
2022-11-06T14:44:51.530Z,12.90
2022-11-06T14:47:32.537Z,12.90
2022-11-06T14:50:07.076Z,13.30
2022-11-06T14:52:46.475Z,13.30
2022-11-06T14:55:32.673Z,13.40
2022-11-06T14:58:18.342Z,13.10
2022-11-06T15:00:54.841Z,13.00
2022-11-06T15:03:31.657Z,13.40
2022-11-06T15:06:08.502Z,13.30
2022-11-06T15:09:05.059Z,13.20
2022-11-06T15:12:00.307Z,13.00
2022-11-06T15:15:01.201Z,13.30
2022-11-06T15:17:35.220Z,13.00
2022-11-06T15:20:30.782Z,12.80
2022-11-06T15:23:14.372Z,12.90
2022-11-06T15:25:55.837Z,13.00
2022-11-06T15:28:29.426Z,12.80
2022-11-06T15:31:05.417Z,12.90
2022-11-06T15:33:37.054Z,12.40
2022-11-06T15:36:13.449Z,12.70
2022-11-06T15:38:43.862Z,12.60
2022-11-06T15:41:17.405Z,12.70
2022-11-06T15:43:47.623Z,12.50
2022-11-06T15:46:22.706Z,12.50
2022-11-06T15:49:09.076Z,12.50
2022-11-06T15:51:41.267Z,12.80
2022-11-06T15:54:14.732Z,12.90
2022-11-06T15:56:44.551Z,12.50
2022-11-06T15:59:17.465Z,12.40
2022-11-06T16:01:50.406Z,12.00
2022-11-06T16:04:22.944Z,11.90
2022-11-06T16:06:53.991Z,11.60
2022-11-06T16:09:27.073Z,12.50
2022-11-06T16:11:56.295Z,12.10
2022-11-06T16:14:25.091Z,11.60
2022-11-06T16:19:32.854Z,11.80
2022-11-06T16:22:07.458Z,13.50
2022-11-06T16:24:44.245Z,13.30
2022-11-06T16:27:14.226Z,13.40
2022-11-06T16:29:48.922Z,12.00
2022-11-06T16:32:21.868Z,12.10
2022-11-06T16:34:51.791Z,11.60
2022-11-06T16:37:43.954Z,11.30
2022-11-06T16:40:52.640Z,11.90
2022-11-06T16:43:23.117Z,12.30
2022-11-06T16:46:00.882Z,11.60
2022-11-06T16:48:36.656Z,12.50
2022-11-06T16:51:11.971Z,12.50
2022-11-06T16:54:02.170Z,12.00
2022-11-06T16:56:33.252Z,11.90
2022-11-06T16:59:08.925Z,12.70
2022-11-06T17:01:44.314Z,13.10
2022-11-06T17:04:22.936Z,12.40
2022-11-06T17:06:52.919Z,12.70
2022-11-06T17:09:33.830Z,13.30
2022-11-06T17:12:03.541Z,13.20
2022-11-06T17:14:32.967Z,13.30
2022-11-06T17:17:03.361Z,12.80
2022-11-06T17:19:32.975Z,11.80
2022-11-06T17:22:01.307Z,11.70
2022-11-06T17:24:37.910Z,11.30
2022-11-06T17:27:06.804Z,11.40
2022-11-06T17:29:36.426Z,11.40
2022-11-06T17:32:05.580Z,11.00
2022-11-06T17:34:35.203Z,11.00
2022-11-06T17:37:03.476Z,11.60
2022-11-06T17:39:32.992Z,12.20
2022-11-06T17:42:01.271Z,11.10
2022-11-06T17:44:29.524Z,10.80
2022-11-06T17:46:57.815Z,11.00
2022-11-06T17:49:26.330Z,10.70
2022-11-06T17:51:59.743Z,11.20
2022-11-06T17:54:32.329Z,12.00
2022-11-06T17:57:03.211Z,12.00
2022-11-06T17:59:31.919Z,11.00
2022-11-06T18:02:00.606Z,11.40
2022-11-06T18:04:34.228Z,11.70
2022-11-06T18:07:03.976Z,11.30
2022-11-06T18:09:32.277Z,11.10
2022-11-06T18:12:00.591Z,11.50
2022-11-06T18:14:29.584Z,11.40
2022-11-06T18:16:58.029Z,11.10
2022-11-06T18:19:27.225Z,11.20
2022-11-06T18:21:56.143Z,11.00
2022-11-06T18:24:26.280Z,11.10
2022-11-06T18:26:54.827Z,11.10
2022-11-06T18:29:23.238Z,11.80
2022-11-06T18:31:51.525Z,11.60
2022-11-06T18:34:21.187Z,11.80
2022-11-06T18:36:51.165Z,11.30
2022-11-06T18:39:20.354Z,11.60
2022-11-06T18:41:50.283Z,11.20
2022-11-06T18:44:19.071Z,11.50
2022-11-06T18:46:47.842Z,11.60
2022-11-06T18:49:16.502Z,11.40
2022-11-06T18:51:44.820Z,11.30
2022-11-06T18:54:14.150Z,11.50
2022-11-06T18:56:42.969Z,11.50
2022-11-06T18:59:19.567Z,11.30
2022-11-06T19:01:48.435Z,11.80
2022-11-06T19:04:16.932Z,12.20
2022-11-06T19:06:45.250Z,11.50
2022-11-06T19:09:13.784Z,11.70
2022-11-06T19:11:42.079Z,12.30
2022-11-06T19:14:10.557Z,11.50
2022-11-06T19:16:40.219Z,12.10
2022-11-06T19:19:08.459Z,12.40
2022-11-06T19:21:36.874Z,12.40
2022-11-06T19:24:06.672Z,12.20
2022-11-06T19:26:36.703Z,12.00
2022-11-06T19:29:07.595Z,12.50
2022-11-06T19:31:37.399Z,12.00
2022-11-06T19:34:09.477Z,11.90
2022-11-06T19:36:37.906Z,12.10
2022-11-06T19:39:07.283Z,12.50
2022-11-06T19:41:36.032Z,11.70
2022-11-06T19:44:04.369Z,11.80
2022-11-06T19:46:35.965Z,11.80
2022-11-06T19:49:07.516Z,11.50
2022-11-06T19:51:37.552Z,11.50
2022-11-06T19:54:07.656Z,12.00
2022-11-06T19:56:36.038Z,12.40
2022-11-06T19:59:04.987Z,12.30
2022-11-06T20:01:34.828Z,12.00
2022-11-06T20:04:03.230Z,12.70
2022-11-06T20:06:35.277Z,12.80
2022-11-06T20:09:03.509Z,13.00
2022-11-06T20:11:31.757Z,12.30
2022-11-06T20:14:00.099Z,12.10
2022-11-06T20:16:28.953Z,12.70
2022-11-06T20:18:59.562Z,12.50
2022-11-06T20:21:30.138Z,12.40
2022-11-06T20:23:59.878Z,12.70
2022-11-06T20:26:28.123Z,12.60
2022-11-06T20:28:56.616Z,13.10
2022-11-06T20:31:24.991Z,13.10
2022-11-06T20:33:54.306Z,12.20
2022-11-06T20:36:24.760Z,12.30
2022-11-06T20:38:56.423Z,12.40
2022-11-06T20:41:27.694Z,12.40
2022-11-06T20:43:56.320Z,12.50
2022-11-06T20:46:25.810Z,13.20
2022-11-06T20:48:54.389Z,12.50
2022-11-06T20:51:25.034Z,12.40
2022-11-06T20:53:54.405Z,12.50
2022-11-06T20:56:26.233Z,11.90
2022-11-06T20:58:55.334Z,12.10
2022-11-06T21:01:27.384Z,12.40
2022-11-06T21:03:57.544Z,12.60
2022-11-06T21:06:27.800Z,12.20
2022-11-06T21:08:56.678Z,12.50
2022-11-06T21:11:28.662Z,12.30
2022-11-06T21:13:57.660Z,12.30
2022-11-06T21:16:29.300Z,13.30
2022-11-06T21:18:59.137Z,13.20
2022-11-06T21:21:33.090Z,13.30
2022-11-06T21:24:03.117Z,12.50
2022-11-06T21:26:35.192Z,12.60
2022-11-06T21:29:05.261Z,12.20
2022-11-06T21:31:34.483Z,12.80
2022-11-06T21:34:05.624Z,12.50
2022-11-06T21:36:36.337Z,12.60
2022-11-06T21:39:08.681Z,12.40
2022-11-06T21:41:39.092Z,12.60
2022-11-06T21:44:08.926Z,13.20
2022-11-06T21:46:41.146Z,12.90
2022-11-06T21:49:12.756Z,13.20
2022-11-06T21:51:41.161Z,12.70
2022-11-06T21:54:29.701Z,12.70
2022-11-06T21:56:59.392Z,13.40
2022-11-06T21:59:29.899Z,12.70
2022-11-06T22:01:58.571Z,12.80
2022-11-06T22:04:27.011Z,12.80
2022-11-06T22:06:55.307Z,12.80
2022-11-06T22:09:25.602Z,12.70
2022-11-06T22:11:54.131Z,12.70
2022-11-06T22:14:23.794Z,12.60
2022-11-06T22:16:53.314Z,13.60
2022-11-06T22:19:21.571Z,13.50
2022-11-06T22:21:49.839Z,13.30
2022-11-06T22:24:18.051Z,13.30
2022-11-06T22:26:46.333Z,13.30
2022-11-06T22:29:15.654Z,12.90
2022-11-06T22:31:45.301Z,12.60
2022-11-06T22:34:14.681Z,12.40
2022-11-06T22:36:43.223Z,13.30
2022-11-06T22:39:13.174Z,13.60
2022-11-06T22:41:42.335Z,12.90
2022-11-06T22:44:12.550Z,12.90
2022-11-06T22:46:41.152Z,12.90
2022-11-06T22:49:10.850Z,12.90
2022-11-06T22:51:39.112Z,12.70
2022-11-06T22:54:07.787Z,12.70
2022-11-06T22:56:36.231Z,13.00
2022-11-06T22:59:08.783Z,12.60
2022-11-06T23:01:42.505Z,12.60
2022-11-06T23:04:15.988Z,13.00
2022-11-06T23:06:45.712Z,12.90
2022-11-06T23:09:14.376Z,13.00
2022-11-06T23:11:42.619Z,13.30
2022-11-06T23:14:10.897Z,13.40
2022-11-06T23:16:56.458Z,12.60
2022-11-06T23:19:26.512Z,12.70
2022-11-06T23:22:16.339Z,12.20
2022-11-06T23:24:44.773Z,12.70
2022-11-06T23:27:13.336Z,13.20
2022-11-06T23:29:41.693Z,12.80
2022-11-06T23:32:09.965Z,12.90
2022-11-06T23:34:39.711Z,12.70
2022-11-06T23:37:08.002Z,13.00
2022-11-06T23:39:36.420Z,12.90
2022-11-06T23:42:04.892Z,13.20
2022-11-06T23:44:50.877Z,13.30
2022-11-06T23:47:19.151Z,13.50
2022-11-06T23:49:48.711Z,12.80
2022-11-06T23:52:16.963Z,12.50
2022-11-06T23:54:45.271Z,12.80
2022-11-06T23:57:14.037Z,12.50
2022-11-06T23:59:42.833Z,12.60
